sensor_id;sensor_type;location;lat;lon;timestamp;pressure;altitude;pressure_sealevel;temperature;humidity
15914;BME280;8055;51.930;8.840;2023-08-20T00:00:00;75112.94;;;-145.72;100.00
15914;BME280;8055;51.930;8.840;2023-08-20T00:02:28;75104.66;;;-145.72;100.00
15914;BME280;8055;51.930;8.840;2023-08-20T00:04:57;75110.88;;;-145.72;100.00
15914;BME280;8055;51.930;8.840;2023-08-20T00:07:23;75119.13;;;-145.72;100.00
15914;BME280;8055;51.930;8.840;2023-08-20T00:09:48;75121.22;;;-145.72;100.00
15914;BME280;8055;51.930;8.840;2023-08-20T00:12:14;75127.41;;;-145.72;100.00
15914;BME280;8055;51.930;8.840;2023-08-20T00:17:24;75133.63;;;-145.72;100.00
15914;BME280;8055;51.930;8.840;2023-08-20T00:19:53;75137.75;;;-145.72;100.00
15914;BME280;8055;51.930;8.840;2023-08-20T00:22:18;75143.97;;;-145.72;100.00
15914;BME280;8055;51.930;8.840;2023-08-20T00:24:44;75141.91;;;-145.72;100.00
15914;BME280;8055;51.930;8.840;2023-08-20T00:27:10;75137.75;;;-145.72;100.00
15914;BME280;8055;51.930;8.840;2023-08-20T00:29:35;75146.03;;;-145.72;100.00
15914;BME280;8055;51.930;8.840;2023-08-20T00:32:01;75146.03;;;-145.72;100.00
15914;BME280;8055;51.930;8.840;2023-08-20T00:34:26;75156.38;;;-145.72;100.00
15914;BME280;8055;51.930;8.840;2023-08-20T00:36:51;75162.59;;;-145.72;100.00
15914;BME280;8055;51.930;8.840;2023-08-20T00:39:19;75160.50;;;-145.72;100.00
15914;BME280;8055;51.930;8.840;2023-08-20T00:41:45;75166.72;;;-145.72;100.00
15914;BME280;8055;51.930;8.840;2023-08-20T00:44:10;75170.88;;;-145.72;100.00
15914;BME280;8055;51.930;8.840;2023-08-20T00:46:36;75175.00;;;-145.72;100.00
15914;BME280;8055;51.930;8.840;2023-08-20T00:49:01;75168.78;;;-145.72;100.00
15914;BME280;8055;51.930;8.840;2023-08-20T00:51:27;75166.72;;;-145.72;100.00
15914;BME280;8055;51.930;8.840;2023-08-20T00:53:53;75172.94;;;-145.72;100.00
15914;BME280;8055;51.930;8.840;2023-08-20T00:56:19;75175.00;;;-145.72;100.00
15914;BME280;8055;51.930;8.840;2023-08-20T00:58:45;75175.00;;;-145.72;100.00
15914;BME280;8055;51.930;8.840;2023-08-20T01:01:10;75172.94;;;-145.72;100.00
15914;BME280;8055;51.930;8.840;2023-08-20T01:03:36;75172.94;;;-145.72;100.00
15914;BME280;8055;51.930;8.840;2023-08-20T01:06:12;75175.00;;;-145.72;100.00
15914;BME280;8055;51.930;8.840;2023-08-20T01:08:44;75179.13;;;-145.72;100.00
15914;BME280;8055;51.930;8.840;2023-08-20T01:11:16;75181.22;;;-145.72;100.00
15914;BME280;8055;51.930;8.840;2023-08-20T01:13:43;75181.22;;;-145.72;100.00
15914;BME280;8055;51.930;8.840;2023-08-20T01:16:09;75179.13;;;-145.72;100.00
15914;BME280;8055;51.930;8.840;2023-08-20T01:18:34;75170.88;;;-145.72;100.00
15914;BME280;8055;51.930;8.840;2023-08-20T01:21:03;75170.88;;;-145.72;100.00
15914;BME280;8055;51.930;8.840;2023-08-20T01:23:41;75172.94;;;-145.72;100.00
15914;BME280;8055;51.930;8.840;2023-08-20T01:27:03;75170.88;;;-145.72;100.00
15914;BME280;8055;51.930;8.840;2023-08-20T01:29:04;75166.72;;;-145.72;100.00
15914;BME280;8055;51.930;8.840;2023-08-20T01:31:32;75172.94;;;-145.72;100.00
15914;BME280;8055;51.930;8.840;2023-08-20T01:33:57;75166.72;;;-145.72;100.00
15914;BME280;8055;51.930;8.840;2023-08-20T01:36:23;75170.88;;;-145.72;100.00
15914;BME280;8055;51.930;8.840;2023-08-20T01:38:48;75166.72;;;-145.72;100.00
15914;BME280;8055;51.930;8.840;2023-08-20T01:41:14;75168.78;;;-145.72;100.00
15914;BME280;8055;51.930;8.840;2023-08-20T01:43:39;75183.28;;;-145.72;100.00
15914;BME280;8055;51.930;8.840;2023-08-20T01:46:06;75185.34;;;-145.72;100.00
15914;BME280;8055;51.930;8.840;2023-08-20T01:48:32;75189.47;;;-145.72;100.00
15914;BME280;8055;51.930;8.840;2023-08-20T01:50:57;75191.56;;;-145.72;100.00
15914;BME280;8055;51.930;8.840;2023-08-20T01:53:23;75195.69;;;-145.72;100.00
15914;BME280;8055;51.930;8.840;2023-08-20T01:55:48;75203.97;;;-145.72;100.00
15914;BME280;8055;51.930;8.840;2023-08-20T01:58:13;75222.59;;;-145.72;100.00
15914;BME280;8055;51.930;8.840;2023-08-20T02:00:40;75218.44;;;-145.72;100.00
15914;BME280;8055;51.930;8.840;2023-08-20T02:03:06;75230.84;;;-145.72;100.00
15914;BME280;8055;51.930;8.840;2023-08-20T02:05:31;75230.84;;;-145.72;100.00
15914;BME280;8055;51.930;8.840;2023-08-20T02:07:57;75228.78;;;-145.72;100.00
15914;BME280;8055;51.930;8.840;2023-08-20T02:10:22;75235.00;;;-145.72;100.00
15914;BME280;8055;51.930;8.840;2023-08-20T02:12:47;75230.84;;;-145.72;100.00
15914;BME280;8055;51.930;8.840;2023-08-20T02:15:13;75247.41;;;-145.72;100.00
15914;BME280;8055;51.930;8.840;2023-08-20T02:17:38;75247.41;;;-145.72;100.00
15914;BME280;8055;51.930;8.840;2023-08-20T02:20:04;75251.56;;;-145.72;100.00
15914;BME280;8055;51.930;8.840;2023-08-20T02:22:29;75255.69;;;-145.72;100.00
15914;BME280;8055;51.930;8.840;2023-08-20T02:24:55;75257.75;;;-145.72;100.00
15914;BME280;8055;51.930;8.840;2023-08-20T02:27:21;75270.16;;;-145.72;100.00
15914;BME280;8055;51.930;8.840;2023-08-20T02:29:46;75266.03;;;-145.72;100.00
15914;BME280;8055;51.930;8.840;2023-08-20T02:32:12;75257.75;;;-145.72;100.00
15914;BME280;8055;51.930;8.840;2023-08-20T02:34:37;75280.50;;;-145.72;100.00
15914;BME280;8055;51.930;8.840;2023-08-20T02:37:02;75282.59;;;-145.72;100.00
15914;BME280;8055;51.930;8.840;2023-08-20T02:39:27;75292.94;;;-145.72;100.00
15914;BME280;8055;51.930;8.840;2023-08-20T02:41:53;75297.06;;;-145.72;100.00
15914;BME280;8055;51.930;8.840;2023-08-20T02:44:18;75290.84;;;-145.72;100.00
15914;BME280;8055;51.930;8.840;2023-08-20T02:46:43;75311.56;;;-145.72;100.00
15914;BME280;8055;51.930;8.840;2023-08-20T02:49:10;75326.03;;;-145.72;100.00
15914;BME280;8055;51.930;8.840;2023-08-20T02:51:35;75338.44;;;-145.72;100.00
15914;BME280;8055;51.930;8.840;2023-08-20T02:54:00;75352.94;;;-145.72;100.00
15914;BME280;8055;51.930;8.840;2023-08-20T02:56:26;75342.59;;;-145.72;100.00
15914;BME280;8055;51.930;8.840;2023-08-20T02:58:51;75342.59;;;-145.72;100.00
15914;BME280;8055;51.930;8.840;2023-08-20T03:01:25;75352.94;;;-145.72;100.00
15914;BME280;8055;51.930;8.840;2023-08-20T03:03:50;75336.38;;;-145.72;100.00
15914;BME280;8055;51.930;8.840;2023-08-20T03:06:16;75332.25;;;-145.72;100.00
15914;BME280;8055;51.930;8.840;2023-08-20T03:08:41;75338.44;;;-145.72;100.00
15914;BME280;8055;51.930;8.840;2023-08-20T03:11:07;75350.88;;;-145.72;100.00
15914;BME280;8055;51.930;8.840;2023-08-20T03:13:32;75352.94;;;-145.72;100.00
15914;BME280;8055;51.930;8.840;2023-08-20T03:15:58;75359.13;;;-145.72;100.00
15914;BME280;8055;51.930;8.840;2023-08-20T03:18:23;75355.00;;;-145.72;100.00
15914;BME280;8055;51.930;8.840;2023-08-20T03:20:48;75361.22;;;-145.72;100.00
15914;BME280;8055;51.930;8.840;2023-08-20T03:23:14;75357.06;;;-145.72;100.00
15914;BME280;8055;51.930;8.840;2023-08-20T03:25:39;75365.34;;;-145.72;100.00
15914;BME280;8055;51.930;8.840;2023-08-20T03:28:05;75365.34;;;-145.72;100.00
15914;BME280;8055;51.930;8.840;2023-08-20T03:30:30;75352.94;;;-145.72;100.00
15914;BME280;8055;51.930;8.840;2023-08-20T03:32:57;75357.06;;;-145.72;100.00
15914;BME280;8055;51.930;8.840;2023-08-20T03:35:22;75367.41;;;-145.72;100.00
15914;BME280;8055;51.930;8.840;2023-08-20T03:37:48;75365.34;;;-145.72;100.00
15914;BME280;8055;51.930;8.840;2023-08-20T03:40:13;75365.34;;;-145.72;100.00
15914;BME280;8055;51.930;8.840;2023-08-20T03:42:39;75365.34;;;-145.72;100.00
15914;BME280;8055;51.930;8.840;2023-08-20T03:45:05;75365.34;;;-145.72;100.00
15914;BME280;8055;51.930;8.840;2023-08-20T03:47:31;75367.41;;;-145.72;100.00
15914;BME280;8055;51.930;8.840;2023-08-20T03:49:56;75375.69;;;-145.72;100.00
15914;BME280;8055;51.930;8.840;2023-08-20T03:52:21;75369.47;;;-145.72;100.00
15914;BME280;8055;51.930;8.840;2023-08-20T03:54:47;75381.91;;;-145.72;100.00
15914;BME280;8055;51.930;8.840;2023-08-20T03:57:12;75367.41;;;-145.72;100.00
15914;BME280;8055;51.930;8.840;2023-08-20T03:59:38;75369.47;;;-145.72;100.00
15914;BME280;8055;51.930;8.840;2023-08-20T04:02:03;75375.69;;;-145.72;100.00
15914;BME280;8055;51.930;8.840;2023-08-20T04:04:28;75379.81;;;-145.72;100.00
15914;BME280;8055;51.930;8.840;2023-08-20T04:06:54;75379.81;;;-145.72;100.00
15914;BME280;8055;51.930;8.840;2023-08-20T04:09:20;75379.81;;;-145.72;100.00
15914;BME280;8055;51.930;8.840;2023-08-20T04:11:45;75377.75;;;-145.72;100.00
15914;BME280;8055;51.930;8.840;2023-08-20T04:14:10;75381.91;;;-145.72;100.00
15914;BME280;8055;51.930;8.840;2023-08-20T04:16:36;75383.97;;;-145.72;100.00
15914;BME280;8055;51.930;8.840;2023-08-20T04:19:01;75396.38;;;-145.72;100.00
15914;BME280;8055;51.930;8.840;2023-08-20T04:21:26;75396.38;;;-145.72;100.00
15914;BME280;8055;51.930;8.840;2023-08-20T04:23:52;75398.44;;;-145.72;100.00
15914;BME280;8055;51.930;8.840;2023-08-20T04:26:17;75394.31;;;-145.72;100.00
15914;BME280;8055;51.930;8.840;2023-08-20T04:28:43;75404.66;;;-145.72;100.00
15914;BME280;8055;51.930;8.840;2023-08-20T04:31:08;75392.25;;;-145.72;100.00
15914;BME280;8055;51.930;8.840;2023-08-20T04:33:33;75402.59;;;-145.72;100.00
15914;BME280;8055;51.930;8.840;2023-08-20T04:35:59;75400.50;;;-145.72;100.00
15914;BME280;8055;51.930;8.840;2023-08-20T04:38:24;75394.31;;;-145.72;100.00
15914;BME280;8055;51.930;8.840;2023-08-20T04:40:50;75390.16;;;-145.72;100.00
15914;BME280;8055;51.930;8.840;2023-08-20T04:43:15;75402.59;;;-145.72;100.00
15914;BME280;8055;51.930;8.840;2023-08-20T04:45:41;75398.44;;;-145.72;100.00
15914;BME280;8055;51.930;8.840;2023-08-20T04:48:07;75404.66;;;-145.72;100.00
15914;BME280;8055;51.930;8.840;2023-08-20T04:50:32;75392.25;;;-145.72;100.00
15914;BME280;8055;51.930;8.840;2023-08-20T04:52:57;75392.25;;;-145.72;100.00
15914;BME280;8055;51.930;8.840;2023-08-20T04:55:28;75406.72;;;-145.72;100.00
15914;BME280;8055;51.930;8.840;2023-08-20T04:57:54;75398.44;;;-145.72;100.00
15914;BME280;8055;51.930;8.840;2023-08-20T05:00:20;75388.09;;;-145.72;100.00
15914;BME280;8055;51.930;8.840;2023-08-20T05:02:45;75386.03;;;-145.72;100.00
15914;BME280;8055;51.930;8.840;2023-08-20T05:05:11;75388.09;;;-145.72;100.00
15914;BME280;8055;51.930;8.840;2023-08-20T05:07:36;75377.75;;;-145.72;100.00
15914;BME280;8055;51.930;8.840;2023-08-20T05:10:02;75383.97;;;-145.72;100.00
15914;BME280;8055;51.930;8.840;2023-08-20T05:12:28;75388.09;;;-145.72;100.00
15914;BME280;8055;51.930;8.840;2023-08-20T05:14:53;75377.75;;;-145.72;100.00
15914;BME280;8055;51.930;8.840;2023-08-20T05:17:18;75383.97;;;-145.72;100.00
15914;BME280;8055;51.930;8.840;2023-08-20T05:19:44;75383.97;;;-145.72;100.00
15914;BME280;8055;51.930;8.840;2023-08-20T05:22:10;75379.81;;;-145.72;100.00
15914;BME280;8055;51.930;8.840;2023-08-20T05:24:37;75381.91;;;-145.72;100.00
15914;BME280;8055;51.930;8.840;2023-08-20T05:27:10;75373.63;;;-145.72;100.00
15914;BME280;8055;51.930;8.840;2023-08-20T05:29:36;75375.69;;;-145.72;100.00
15914;BME280;8055;51.930;8.840;2023-08-20T05:32:02;75371.56;;;-145.72;100.00
15914;BME280;8055;51.930;8.840;2023-08-20T05:34:27;75365.34;;;-145.72;100.00
15914;BME280;8055;51.930;8.840;2023-08-20T05:36:52;75363.28;;;-145.72;100.00
15914;BME280;8055;51.930;8.840;2023-08-20T05:39:18;75365.34;;;-145.72;100.00
15914;BME280;8055;51.930;8.840;2023-08-20T05:41:43;75355.00;;;-145.72;100.00
15914;BME280;8055;51.930;8.840;2023-08-20T05:44:09;75346.72;;;-145.72;100.00
15914;BME280;8055;51.930;8.840;2023-08-20T05:46:35;75352.94;;;-145.72;100.00
15914;BME280;8055;51.930;8.840;2023-08-20T05:49:00;75346.72;;;-145.72;100.00
15914;BME280;8055;51.930;8.840;2023-08-20T05:51:26;75336.38;;;-145.72;100.00
15914;BME280;8055;51.930;8.840;2023-08-20T05:53:51;75321.91;;;-145.72;100.00
15914;BME280;8055;51.930;8.840;2023-08-20T05:56:16;75328.09;;;-145.72;100.00
15914;BME280;8055;51.930;8.840;2023-08-20T05:58:42;75334.31;;;-145.72;100.00
15914;BME280;8055;51.930;8.840;2023-08-20T06:01:07;75332.25;;;-145.72;100.00
15914;BME280;8055;51.930;8.840;2023-08-20T06:03:32;75328.09;;;-145.72;100.00
15914;BME280;8055;51.930;8.840;2023-08-20T06:05:58;75315.69;;;-145.72;100.00
15914;BME280;8055;51.930;8.840;2023-08-20T06:08:23;75311.56;;;-145.72;100.00
15914;BME280;8055;51.930;8.840;2023-08-20T06:10:49;75292.94;;;-145.72;100.00
15914;BME280;8055;51.930;8.840;2023-08-20T06:13:14;75286.72;;;-145.72;100.00
15914;BME280;8055;51.930;8.840;2023-08-20T06:15:39;75280.50;;;-145.72;100.00
15914;BME280;8055;51.930;8.840;2023-08-20T06:18:05;75268.09;;;-145.72;100.00
15914;BME280;8055;51.930;8.840;2023-08-20T06:20:30;75263.97;;;-145.72;100.00
15914;BME280;8055;51.930;8.840;2023-08-20T06:22:56;75255.69;;;-145.72;100.00
15914;BME280;8055;51.930;8.840;2023-08-20T06:25:21;75253.63;;;-145.72;100.00
15914;BME280;8055;51.930;8.840;2023-08-20T06:27:47;75253.63;;;-145.72;100.00
15914;BME280;8055;51.930;8.840;2023-08-20T06:30:12;75251.56;;;-145.72;100.00
15914;BME280;8055;51.930;8.840;2023-08-20T06:32:37;75249.47;;;-145.72;100.00
15914;BME280;8055;51.930;8.840;2023-08-20T06:35:03;75241.19;;;-145.72;100.00
15914;BME280;8055;51.930;8.840;2023-08-20T06:37:29;75232.94;;;-145.72;100.00
15914;BME280;8055;51.930;8.840;2023-08-20T06:39:54;75222.59;;;-145.72;100.00
15914;BME280;8055;51.930;8.840;2023-08-20T06:42:19;75216.38;;;-145.72;100.00
15914;BME280;8055;51.930;8.840;2023-08-20T06:44:45;75201.91;;;-145.72;100.00
15914;BME280;8055;51.930;8.840;2023-08-20T06:47:10;75185.34;;;-145.72;100.00
15914;BME280;8055;51.930;8.840;2023-08-20T06:49:35;75175.00;;;-145.72;100.00
15914;BME280;8055;51.930;8.840;2023-08-20T06:52:01;75158.44;;;-145.72;100.00
15914;BME280;8055;51.930;8.840;2023-08-20T06:54:26;75168.78;;;-145.72;100.00
15914;BME280;8055;51.930;8.840;2023-08-20T06:56:51;75172.94;;;-145.72;100.00
15914;BME280;8055;51.930;8.840;2023-08-20T06:59:17;75191.56;;;-145.72;100.00
15914;BME280;8055;51.930;8.840;2023-08-20T07:01:42;75199.81;;;-145.72;100.00
15914;BME280;8055;51.930;8.840;2023-08-20T07:04:08;75193.63;;;-145.72;100.00
15914;BME280;8055;51.930;8.840;2023-08-20T07:06:33;75187.41;;;-145.72;100.00
15914;BME280;8055;51.930;8.840;2023-08-20T07:08:59;75181.22;;;-145.72;100.00
15914;BME280;8055;51.930;8.840;2023-08-20T07:11:24;75170.88;;;-145.72;100.00
15914;BME280;8055;51.930;8.840;2023-08-20T07:13:49;75154.31;;;-145.72;100.00
15914;BME280;8055;51.930;8.840;2023-08-20T07:16:15;75150.16;;;-145.72;99.25
15914;BME280;8055;51.930;8.840;2023-08-20T07:18:40;75129.47;;;-145.72;100.00
15914;BME280;8055;51.930;8.840;2023-08-20T07:21:05;75129.47;;;-145.72;100.00
15914;BME280;8055;51.930;8.840;2023-08-20T07:23:33;75137.75;;;-145.72;98.27
15914;BME280;8055;51.930;8.840;2023-08-20T07:26:10;75125.34;;;-145.72;98.99
15914;BME280;8055;51.930;8.840;2023-08-20T07:28:37;75112.94;;;-145.72;100.00
15914;BME280;8055;51.930;8.840;2023-08-20T07:31:25;75102.59;;;-145.72;98.68
15914;BME280;8055;51.930;8.840;2023-08-20T07:33:52;75083.97;;;-145.72;99.47
15914;BME280;8055;51.930;8.840;2023-08-20T07:36:18;75067.41;;;-145.72;100.00
15914;BME280;8055;51.930;8.840;2023-08-20T07:38:44;75055.00;;;-145.72;100.00
15914;BME280;8055;51.930;8.840;2023-08-20T07:41:11;75050.88;;;-145.72;99.08
15914;BME280;8055;51.930;8.840;2023-08-20T07:43:40;75042.59;;;-145.72;99.49
15914;BME280;8055;51.930;8.840;2023-08-20T07:46:07;75034.31;;;-145.72;95.70
15914;BME280;8055;51.930;8.840;2023-08-20T07:48:33;75021.91;;;-145.72;98.21
15914;BME280;8055;51.930;8.840;2023-08-20T07:50:59;75011.56;;;-145.72;98.59
15914;BME280;8055;51.930;8.840;2023-08-20T07:53:25;74984.66;;;-145.72;100.00
15914;BME280;8055;51.930;8.840;2023-08-20T07:55:50;74972.25;;;-145.72;98.48
15914;BME280;8055;51.930;8.840;2023-08-20T07:58:16;74968.13;;;-145.72;98.20
15914;BME280;8055;51.930;8.840;2023-08-20T08:00:41;74957.78;;;-145.72;95.20
15914;BME280;8055;51.930;8.840;2023-08-20T08:03:06;74947.44;;;-145.72;96.76
15914;BME280;8055;51.930;8.840;2023-08-20T08:05:32;74932.94;;;-145.72;93.53
15914;BME280;8055;51.930;8.840;2023-08-20T08:07:57;74928.81;;;-145.72;93.39
15914;BME280;8055;51.930;8.840;2023-08-20T08:10:23;74928.81;;;-145.72;92.98
15914;BME280;8055;51.930;8.840;2023-08-20T08:12:48;74922.59;;;-145.72;93.81
15914;BME280;8055;51.930;8.840;2023-08-20T08:15:14;74922.59;;;-145.72;90.93
15914;BME280;8055;51.930;8.840;2023-08-20T08:17:39;74908.13;;;-145.72;94.36
15914;BME280;8055;51.930;8.840;2023-08-20T08:20:05;74910.19;;;-145.72;91.68
15914;BME280;8055;51.930;8.840;2023-08-20T08:22:31;74910.19;;;-145.72;91.50
15914;BME280;8055;51.930;8.840;2023-08-20T08:24:57;74893.63;;;-145.72;92.59
15914;BME280;8055;51.930;8.840;2023-08-20T08:27:22;74870.88;;;-145.72;94.32
15914;BME280;8055;51.930;8.840;2023-08-20T08:29:48;74864.66;;;-145.72;92.99
15914;BME280;8055;51.930;8.840;2023-08-20T08:32:13;74858.47;;;-145.72;92.15
15914;BME280;8055;51.930;8.840;2023-08-20T08:34:39;74850.19;;;-145.72;88.48
15914;BME280;8055;51.930;8.840;2023-08-20T08:37:04;74843.97;;;-145.72;87.37
15914;BME280;8055;51.930;8.840;2023-08-20T08:39:29;74821.22;;;-145.72;89.89
15914;BME280;8055;51.930;8.840;2023-08-20T08:42:04;74812.94;;;-145.72;88.58
15914;BME280;8055;51.930;8.840;2023-08-20T08:44:34;74796.41;;;-145.72;88.68
15914;BME280;8055;51.930;8.840;2023-08-20T08:47:02;74802.63;;;-145.72;85.28
15914;BME280;8055;51.930;8.840;2023-08-20T08:49:28;74798.47;;;-145.72;85.34
15914;BME280;8055;51.930;8.840;2023-08-20T08:51:59;74773.66;;;-145.72;85.97
15914;BME280;8055;51.930;8.840;2023-08-20T08:54:25;74777.78;;;-145.72;83.08
15914;BME280;8055;51.930;8.840;2023-08-20T08:56:50;74777.78;;;-145.72;84.42
15914;BME280;8055;51.930;8.840;2023-08-20T08:59:16;74746.75;;;-145.72;87.96
15914;BME280;8055;51.930;8.840;2023-08-20T09:01:41;74752.97;;;-145.72;82.85
15914;BME280;8055;51.930;8.840;2023-08-20T09:04:07;74734.34;;;-145.72;83.38
15914;BME280;8055;51.930;8.840;2023-08-20T09:06:52;74724.00;;;-145.72;82.14
15914;BME280;8055;51.930;8.840;2023-08-20T09:09:19;74719.88;;;-145.72;82.24
15914;BME280;8055;51.930;8.840;2023-08-20T09:11:45;74713.66;;;-145.72;80.01
15914;BME280;8055;51.930;8.840;2023-08-20T09:14:30;74692.97;;;-145.72;79.69
15914;BME280;8055;51.930;8.840;2023-08-20T09:17:00;74697.09;;;-145.72;76.28
15914;BME280;8055;51.930;8.840;2023-08-20T09:19:30;74688.84;;;-145.72;75.93
15914;BME280;8055;51.930;8.840;2023-08-20T09:22:00;74668.16;;;-145.72;75.80
15914;BME280;8055;51.930;8.840;2023-08-20T09:24:32;74653.66;;;-145.72;76.83
15914;BME280;8055;51.930;8.840;2023-08-20T09:26:58;74630.91;;;-145.72;76.05
15914;BME280;8055;51.930;8.840;2023-08-20T09:29:26;74659.88;;;-145.72;72.60
15914;BME280;8055;51.930;8.840;2023-08-20T09:32:00;74637.13;;;-145.72;75.28
15914;BME280;8055;51.930;8.840;2023-08-20T09:34:36;74624.69;;;-145.72;76.12
15914;BME280;8055;51.930;8.840;2023-08-20T09:37:02;74624.69;;;-145.72;72.64
15914;BME280;8055;51.930;8.840;2023-08-20T09:39:28;74618.50;;;-145.72;69.01
15914;BME280;8055;51.930;8.840;2023-08-20T09:41:54;74612.28;;;-145.72;68.75
15914;BME280;8055;51.930;8.840;2023-08-20T09:44:21;74591.59;;;-145.72;71.44
15914;BME280;8055;51.930;8.840;2023-08-20T09:46:46;74575.06;;;-145.72;69.71
15914;BME280;8055;51.930;8.840;2023-08-20T09:49:14;74570.91;;;-145.72;68.03
15914;BME280;8055;51.930;8.840;2023-08-20T09:51:43;74573.00;;;-145.72;66.47
15914;BME280;8055;51.930;8.840;2023-08-20T09:54:21;74548.16;;;-145.72;68.73
15914;BME280;8055;51.930;8.840;2023-08-20T09:56:54;74544.03;;;-145.72;64.18
15914;BME280;8055;51.930;8.840;2023-08-20T09:59:22;74544.03;;;-145.72;61.39
15914;BME280;8055;51.930;8.840;2023-08-20T10:01:50;74546.09;;;-145.72;60.94
15914;BME280;8055;51.930;8.840;2023-08-20T10:04:16;74558.50;;;-145.72;57.38
15914;BME280;8055;51.930;8.840;2023-08-20T10:06:43;74525.41;;;-145.72;62.46
15914;BME280;8055;51.930;8.840;2023-08-20T10:09:09;74523.34;;;-145.72;64.24
15914;BME280;8055;51.930;8.840;2023-08-20T10:11:34;74517.13;;;-145.72;61.04
15914;BME280;8055;51.930;8.840;2023-08-20T10:14:02;74519.19;;;-145.72;59.63
15914;BME280;8055;51.930;8.840;2023-08-20T10:16:28;74481.97;;;-145.72;65.14
15914;BME280;8055;51.930;8.840;2023-08-20T10:18:54;74453.00;;;-145.72;65.12
15914;BME280;8055;51.930;8.840;2023-08-20T10:21:23;74446.81;;;-145.72;59.41
15914;BME280;8055;51.930;8.840;2023-08-20T10:23:49;74475.75;;;-145.72;60.16
15914;BME280;8055;51.930;8.840;2023-08-20T10:26:15;74479.91;;;-145.72;61.10
15914;BME280;8055;51.930;8.840;2023-08-20T10:28:42;74467.50;;;-145.72;63.83
15914;BME280;8055;51.930;8.840;2023-08-20T10:31:08;74496.44;;;-145.72;60.04
15914;BME280;8055;51.930;8.840;2023-08-20T10:33:35;74488.19;;;-145.72;59.90
15914;BME280;8055;51.930;8.840;2023-08-20T10:38:44;74444.72;;;-145.72;62.62
15914;BME280;8055;51.930;8.840;2023-08-20T10:41:10;74432.31;;;-145.72;61.42
15914;BME280;8055;51.930;8.840;2023-08-20T10:43:48;74405.44;;;-145.72;60.62
15914;BME280;8055;51.930;8.840;2023-08-20T10:46:22;74401.28;;;-145.72;57.00
15914;BME280;8055;51.930;8.840;2023-08-20T10:48:50;74388.88;;;-145.72;59.34
15914;BME280;8055;51.930;8.840;2023-08-20T10:51:18;74409.56;;;-145.72;61.56
15914;BME280;8055;51.930;8.840;2023-08-20T10:54:03;74376.47;;;-145.72;61.88
15914;BME280;8055;51.930;8.840;2023-08-20T10:56:45;74364.06;;;-145.72;59.53
15914;BME280;8055;51.930;8.840;2023-08-20T10:59:26;74351.66;;;-145.72;60.53
15914;BME280;8055;51.930;8.840;2023-08-20T11:01:53;74401.28;;;-145.72;58.09
15914;BME280;8055;51.930;8.840;2023-08-20T11:04:24;74432.31;;;-145.72;62.72
15914;BME280;8055;51.930;8.840;2023-08-20T11:06:56;74397.16;;;-145.72;64.90
15914;BME280;8055;51.930;8.840;2023-08-20T11:09:26;74374.41;;;-145.72;65.35
15914;BME280;8055;51.930;8.840;2023-08-20T11:11:53;74417.84;;;-145.72;61.03
15914;BME280;8055;51.930;8.840;2023-08-20T11:14:19;74444.72;;;-145.72;60.75
15914;BME280;8055;51.930;8.840;2023-08-20T11:16:46;74457.16;;;-145.72;61.57
15914;BME280;8055;51.930;8.840;2023-08-20T11:19:13;74498.53;;;-145.72;63.13
15914;BME280;8055;51.930;8.840;2023-08-20T11:21:40;74515.06;;;-145.72;65.18
15914;BME280;8055;51.930;8.840;2023-08-20T11:24:07;74535.75;;;-145.72;65.08
15914;BME280;8055;51.930;8.840;2023-08-20T11:26:38;74552.31;;;-145.72;65.27
15914;BME280;8055;51.930;8.840;2023-08-20T11:29:08;74566.78;;;-145.72;66.26
15914;BME280;8055;51.930;8.840;2023-08-20T11:31:34;74585.41;;;-145.72;65.78
15914;BME280;8055;51.930;8.840;2023-08-20T11:34:01;74585.41;;;-145.72;71.85
15914;BME280;8055;51.930;8.840;2023-08-20T11:36:27;74510.94;;;-145.72;66.76
15914;BME280;8055;51.930;8.840;2023-08-20T11:38:53;74459.22;;;-145.72;61.16
15914;BME280;8055;51.930;8.840;2023-08-20T11:41:23;74401.28;;;-145.72;63.04
15914;BME280;8055;51.930;8.840;2023-08-20T11:43:49;74378.53;;;-145.72;59.97
15914;BME280;8055;51.930;8.840;2023-08-20T11:46:17;74393.03;;;-145.72;60.96
15914;BME280;8055;51.930;8.840;2023-08-20T11:51:28;74289.59;;;-145.72;63.46
15914;BME280;8055;51.930;8.840;2023-08-20T11:53:54;74306.16;;;-145.72;62.11
15914;BME280;8055;51.930;8.840;2023-08-20T11:56:19;74322.69;;;-145.72;59.61
15914;BME280;8055;51.930;8.840;2023-08-20T11:58:51;74320.63;;;-145.72;60.62
15914;BME280;8055;51.930;8.840;2023-08-20T12:01:18;74345.44;;;-145.72;58.24
15914;BME280;8055;51.930;8.840;2023-08-20T12:03:44;74353.72;;;-145.72;57.11
15914;BME280;8055;51.930;8.840;2023-08-20T12:06:20;74386.81;;;-145.72;58.01
15914;BME280;8055;51.930;8.840;2023-08-20T12:08:46;74428.19;;;-145.72;58.41
15914;BME280;8055;51.930;8.840;2023-08-20T12:11:13;74463.34;;;-145.72;59.87
15914;BME280;8055;51.930;8.840;2023-08-20T12:13:38;74498.53;;;-145.72;61.82
15914;BME280;8055;51.930;8.840;2023-08-20T12:16:03;74527.47;;;-145.72;63.04
15914;BME280;8055;51.930;8.840;2023-08-20T12:18:29;74531.63;;;-145.72;65.50
15914;BME280;8055;51.930;8.840;2023-08-20T12:20:55;74531.63;;;-145.72;63.35
15914;BME280;8055;51.930;8.840;2023-08-20T12:23:21;74490.25;;;-145.72;62.33
15914;BME280;8055;51.930;8.840;2023-08-20T12:25:50;74386.81;;;-145.72;61.32
15914;BME280;8055;51.930;8.840;2023-08-20T12:28:15;74357.84;;;-145.72;60.51
15914;BME280;8055;51.930;8.840;2023-08-20T12:30:41;74326.84;;;-145.72;58.78
15914;BME280;8055;51.930;8.840;2023-08-20T12:33:07;74306.16;;;-145.72;57.48
15914;BME280;8055;51.930;8.840;2023-08-20T12:35:32;74242.03;;;-145.72;58.37
15914;BME280;8055;51.930;8.840;2023-08-20T12:37:58;74252.38;;;-145.72;57.07
15914;BME280;8055;51.930;8.840;2023-08-20T12:40:23;74281.31;;;-145.72;57.18
15914;BME280;8055;51.930;8.840;2023-08-20T12:42:48;74252.38;;;-145.72;54.46
15914;BME280;8055;51.930;8.840;2023-08-20T12:45:14;74293.72;;;-145.72;54.45
15914;BME280;8055;51.930;8.840;2023-08-20T12:47:40;74312.34;;;-145.72;56.96